createdAt,value
2018-11-04T00:00:01.098Z,4.7
2018-11-04T00:01:03.013Z,4.7
2018-11-04T00:02:05.035Z,4.7
2018-11-04T00:03:07.039Z,4.7
2018-11-04T00:04:09.061Z,4.7
2018-11-04T00:05:11.368Z,4.7
2018-11-04T00:06:13.658Z,4.8
2018-11-04T00:07:16.269Z,4.8
2018-11-04T00:08:18.286Z,4.8
2018-11-04T00:09:20.310Z,4.8
2018-11-04T00:10:22.598Z,4.8
2018-11-04T00:11:25.003Z,4.8
2018-11-04T00:12:27.022Z,4.8
2018-11-04T00:13:29.043Z,4.8
2018-11-04T00:14:31.050Z,4.8
2018-11-04T00:15:33.080Z,4.8
2018-11-04T00:16:35.093Z,4.8
2018-11-04T00:17:37.109Z,4.8
2018-11-04T00:18:39.136Z,4.8
2018-11-04T00:19:41.142Z,4.8
2018-11-04T00:20:43.161Z,4.8
2018-11-04T00:21:45.172Z,4.8
2018-11-04T00:22:47.195Z,4.8
2018-11-04T00:23:49.244Z,4.8
2018-11-04T00:24:51.215Z,4.9
2018-11-04T00:25:53.526Z,4.8
2018-11-04T00:26:55.601Z,4.8
2018-11-04T00:27:57.558Z,4.8
2018-11-04T00:28:59.573Z,4.8
2018-11-04T00:30:01.587Z,4.7
2018-11-04T00:31:03.892Z,4.7
2018-11-04T00:32:05.917Z,4.8
2018-11-04T00:33:08.518Z,4.7
2018-11-04T00:34:10.538Z,4.8
2018-11-04T00:35:12.553Z,4.8
2018-11-04T00:36:14.574Z,4.8
2018-11-04T00:37:16.582Z,4.8
2018-11-04T00:38:18.610Z,4.8
2018-11-04T00:39:20.611Z,4.8
2018-11-04T00:40:22.640Z,4.8
2018-11-04T00:41:24.659Z,4.8
2018-11-04T00:42:26.671Z,4.9
2018-11-04T00:43:28.699Z,4.9
2018-11-04T00:44:30.709Z,4.8
2018-11-04T00:45:32.773Z,4.8
2018-11-04T00:46:34.743Z,4.8
2018-11-04T00:47:36.759Z,4.8
2018-11-04T00:48:38.784Z,4.8
2018-11-04T00:49:40.806Z,4.8
2018-11-04T00:50:43.206Z,4.8
2018-11-04T00:51:45.232Z,4.7
2018-11-04T00:52:47.237Z,4.7
2018-11-04T00:53:49.287Z,4.7
2018-11-04T00:54:51.264Z,4.8
2018-11-04T00:55:53.592Z,4.8
2018-11-04T00:56:55.598Z,4.8
2018-11-04T00:57:57.616Z,4.8
2018-11-04T00:58:59.637Z,4.8
2018-11-04T01:00:01.643Z,4.8
2018-11-04T01:01:03.668Z,4.8
2018-11-04T01:02:05.685Z,4.7
2018-11-04T01:03:07.694Z,4.7
2018-11-04T01:04:09.708Z,4.7
2018-11-04T01:05:11.729Z,4.7
2018-11-04T01:06:13.748Z,4.7
2018-11-04T01:07:15.767Z,4.7
2018-11-04T01:08:17.785Z,4.7
2018-11-04T01:09:20.518Z,4.7
2018-11-04T01:10:22.382Z,4.7
2018-11-04T01:11:24.403Z,4.7
2018-11-04T01:12:26.404Z,4.7
2018-11-04T01:13:28.427Z,4.7
2018-11-04T01:14:30.445Z,4.7
2018-11-04T01:15:32.459Z,4.7
2018-11-04T01:16:34.488Z,4.7
2018-11-04T01:17:36.497Z,4.7
2018-11-04T01:18:38.894Z,4.8
2018-11-04T01:19:40.909Z,4.8
2018-11-04T01:20:43.222Z,4.8
2018-11-04T01:21:45.614Z,4.7
2018-11-04T01:22:47.630Z,4.8
2018-11-04T01:23:49.646Z,4.8
2018-11-04T01:24:51.660Z,4.8
2018-11-04T01:25:53.665Z,4.8
2018-11-04T01:26:55.683Z,4.8
2018-11-04T01:27:57.692Z,4.8
2018-11-04T01:29:00.102Z,4.8
2018-11-04T01:30:02.556Z,4.8
2018-11-04T01:31:04.874Z,4.9
2018-11-04T01:32:06.900Z,4.8
2018-11-04T01:33:09.191Z,4.8
2018-11-04T01:34:11.220Z,4.8
2018-11-04T01:35:13.239Z,4.8
2018-11-04T01:36:15.250Z,4.9
2018-11-04T01:37:17.266Z,4.9
2018-11-04T01:38:19.290Z,4.9
2018-11-04T01:39:21.305Z,4.9
2018-11-04T01:40:24.285Z,4.9
2018-11-04T01:41:26.299Z,4.9
2018-11-04T01:42:28.304Z,4.9
2018-11-04T01:43:30.316Z,4.9
2018-11-04T01:44:32.340Z,5
2018-11-04T01:45:34.342Z,5
2018-11-04T01:46:36.369Z,5
2018-11-04T01:47:38.389Z,5
2018-11-04T01:48:40.402Z,5.1
2018-11-04T01:49:42.718Z,5.1
2018-11-04T01:50:44.727Z,5.1
2018-11-04T01:51:47.033Z,5.1
2018-11-04T01:52:49.326Z,5.1
2018-11-04T01:53:51.351Z,5.1
2018-11-04T01:54:53.358Z,5.2
2018-11-04T01:55:55.667Z,5.2
2018-11-04T01:56:57.686Z,5.2
2018-11-04T01:57:59.693Z,5.2
2018-11-04T01:59:02.107Z,5.3
2018-11-04T02:00:04.514Z,5.2
2018-11-04T02:01:06.530Z,5.3
2018-11-04T02:02:08.537Z,5.3
2018-11-04T02:03:10.566Z,5.3
2018-11-04T02:04:12.588Z,5.3
2018-11-04T02:05:14.922Z,5.3
2018-11-04T02:06:16.908Z,5.3
2018-11-04T02:07:18.912Z,5.3
2018-11-04T02:08:20.929Z,5.3
2018-11-04T02:09:22.951Z,5.3
2018-11-04T02:10:24.973Z,5.3
2018-11-04T02:11:27.261Z,5.3
2018-11-04T02:12:29.278Z,5.2
2018-11-04T02:13:31.293Z,5.2
2018-11-04T02:14:33.310Z,5.3
2018-11-04T02:15:35.339Z,5.2
2018-11-04T02:16:37.647Z,5.2
2018-11-04T02:17:40.040Z,5.2
2018-11-04T02:18:42.067Z,5.1
2018-11-04T02:19:44.075Z,5.1
2018-11-04T02:20:46.090Z,5.1
2018-11-04T02:21:48.103Z,5.1
2018-11-04T02:22:50.112Z,5.1
2018-11-04T02:23:52.425Z,5.1
2018-11-04T02:24:54.443Z,5.1
2018-11-04T02:25:56.465Z,5
2018-11-04T02:26:58.472Z,5
2018-11-04T02:28:00.499Z,5
2018-11-04T02:29:02.516Z,5
2018-11-04T02:30:04.533Z,4.9
2018-11-04T02:31:06.559Z,4.9
2018-11-04T02:32:08.845Z,4.9
2018-11-04T02:33:10.868Z,4.9
2018-11-04T02:34:12.872Z,4.9
2018-11-04T02:35:15.190Z,4.9
2018-11-04T02:36:17.577Z,4.8
2018-11-04T02:37:20.283Z,4.8
2018-11-04T02:38:22.691Z,4.8
2018-11-04T02:39:25.264Z,4.8
2018-11-04T02:40:27.287Z,4.8
2018-11-04T02:41:29.303Z,4.8
2018-11-04T02:42:31.328Z,4.8
2018-11-04T02:43:33.345Z,4.7
2018-11-04T02:44:35.354Z,4.7
2018-11-04T02:45:37.759Z,4.7
2018-11-04T02:46:39.814Z,4.7
2018-11-04T02:47:41.793Z,4.8
2018-11-04T02:48:43.819Z,4.7
2018-11-04T02:49:45.843Z,4.8
2018-11-04T02:50:48.232Z,4.7
2018-11-04T02:51:50.955Z,4.8
2018-11-04T02:52:53.251Z,4.7
2018-11-04T02:53:55.651Z,4.8
2018-11-04T02:54:57.676Z,4.8
2018-11-04T02:55:59.677Z,4.8
2018-11-04T02:57:01.700Z,4.8
2018-11-04T02:58:03.717Z,4.8
2018-11-04T02:59:06.120Z,4.8
2018-11-04T03:00:08.416Z,4.8
2018-11-04T03:01:10.456Z,4.9
2018-11-04T03:02:13.084Z,4.9
2018-11-04T03:03:15.106Z,4.9
2018-11-04T03:04:17.708Z,4.9
2018-11-04T03:05:20.002Z,4.8
2018-11-04T03:06:22.016Z,4.9
2018-11-04T03:07:24.313Z,4.9
2018-11-04T03:08:27.024Z,4.9
2018-11-04T03:09:29.030Z,4.9
2018-11-04T03:10:31.622Z,4.9
2018-11-04T03:11:33.642Z,4.9
2018-11-04T03:12:35.653Z,4.9
2018-11-04T03:13:38.367Z,4.9
2018-11-04T03:14:41.049Z,4.9
2018-11-04T03:15:43.060Z,4.9
2018-11-04T03:16:45.077Z,4.9
2018-11-04T03:17:47.981Z,4.9
2018-11-04T03:18:49.999Z,4.9
2018-11-04T03:19:52.013Z,5
2018-11-04T03:20:54.036Z,5
2018-11-04T03:21:56.361Z,5.1
2018-11-04T03:22:58.379Z,5.1
2018-11-04T03:24:00.675Z,5.1
2018-11-04T03:25:02.698Z,5.1
2018-11-04T03:26:04.712Z,5.1
2018-11-04T03:27:07.111Z,5.1
2018-11-04T03:28:09.515Z,5.1
2018-11-04T03:29:11.520Z,5.1
2018-11-04T03:30:13.844Z,5.1
2018-11-04T03:31:16.523Z,5.1
2018-11-04T03:32:18.832Z,5.1
2018-11-04T03:33:20.836Z,5.1
2018-11-04T03:34:23.547Z,5.1
2018-11-04T03:35:25.558Z,5.1
2018-11-04T03:36:27.574Z,5.2
2018-11-04T03:37:29.894Z,5.2
2018-11-04T03:38:31.896Z,5.2
2018-11-04T03:39:33.909Z,5.2
2018-11-04T03:40:36.203Z,5.2
2018-11-04T03:41:38.514Z,5.2
2018-11-04T03:42:40.519Z,5.3
2018-11-04T03:43:42.838Z,5.3
2018-11-04T03:44:44.860Z,5.3
2018-11-04T03:45:46.860Z,5.3
2018-11-04T03:46:48.892Z,5.3
2018-11-04T03:47:51.195Z,5.3
2018-11-04T03:48:53.796Z,5.3
2018-11-04T03:49:55.812Z,5.3
2018-11-04T03:50:58.457Z,5.3
2018-11-04T03:52:00.859Z,5.3
2018-11-04T03:53:04.137Z,5.3
2018-11-04T03:54:06.156Z,5.3
2018-11-04T03:55:08.171Z,5.4
2018-11-04T03:56:10.854Z,5.4
2018-11-04T03:57:12.866Z,5.4
2018-11-04T03:58:14.897Z,5.4
2018-11-04T03:59:16.903Z,5.4
2018-11-04T04:00:19.306Z,5.4
2018-11-04T04:01:21.323Z,5.4
2018-11-04T04:02:23.712Z,5.5
2018-11-04T04:03:25.733Z,5.5
2018-11-04T04:04:27.833Z,5.5
2018-11-04T04:05:30.442Z,5.5
2018-11-04T04:06:32.836Z,5.5
2018-11-04T04:07:34.860Z,5.5
2018-11-04T04:08:37.167Z,5.5
2018-11-04T04:09:39.180Z,5.5
2018-11-04T04:10:41.491Z,5.5
2018-11-04T04:11:43.495Z,5.5
2018-11-04T04:12:46.208Z,5.5
2018-11-04T04:13:48.217Z,5.5
2018-11-04T04:14:50.244Z,5.5
2018-11-04T04:15:52.960Z,5.5
2018-11-04T04:16:54.971Z,5.5
2018-11-04T04:17:57.274Z,5.5
2018-11-04T04:18:59.565Z,5.5
2018-11-04T04:20:01.879Z,5.5
2018-11-04T04:21:03.894Z,5.5
2018-11-04T04:22:05.912Z,5.6
2018-11-04T04:23:08.234Z,5.6
2018-11-04T04:24:10.263Z,5.6
2018-11-04T04:25:12.284Z,5.6
2018-11-04T04:26:14.298Z,5.6
2018-11-04T04:27:16.313Z,5.6
2018-11-04T04:28:18.321Z,5.6
2018-11-04T04:29:20.627Z,5.6
2018-11-04T04:30:22.650Z,5.6
2018-11-04T04:31:25.324Z,5.6
2018-11-04T04:32:27.352Z,5.6
2018-11-04T04:33:29.366Z,5.6
2018-11-04T04:34:31.384Z,5.6
2018-11-04T04:35:33.409Z,5.6
2018-11-04T04:36:35.424Z,5.6
2018-11-04T04:37:37.725Z,5.6
2018-11-04T04:38:39.733Z,5.6
2018-11-04T04:39:41.758Z,5.6
2018-11-04T04:40:43.761Z,5.7
2018-11-04T04:41:45.776Z,5.7
2018-11-04T04:42:48.561Z,5.7
2018-11-04T04:43:50.569Z,5.7
2018-11-04T04:44:52.598Z,5.7
2018-11-04T04:45:55.001Z,5.7
2018-11-04T04:46:57.405Z,5.7
2018-11-04T04:47:59.411Z,5.7
2018-11-04T04:49:01.719Z,5.8
2018-11-04T04:50:04.305Z,5.8
2018-11-04T04:51:06.892Z,5.8
2018-11-04T04:52:08.918Z,5.8
2018-11-04T04:53:11.200Z,5.8
2018-11-04T04:54:13.222Z,5.8
2018-11-04T04:55:15.539Z,5.8
2018-11-04T04:56:17.937Z,5.8
2018-11-04T04:57:19.945Z,5.8
2018-11-04T04:58:21.965Z,5.8
2018-11-04T04:59:23.986Z,5.8
2018-11-04T05:00:25.997Z,5.8
2018-11-04T05:01:28.027Z,5.8
2018-11-04T05:02:30.322Z,5.8
2018-11-04T05:03:32.331Z,5.8
2018-11-04T05:04:34.359Z,5.8
2018-11-04T05:05:36.651Z,5.9
2018-11-04T05:06:38.665Z,5.8
2018-11-04T05:07:40.677Z,5.8
2018-11-04T05:08:42.977Z,5.8
2018-11-04T05:09:44.994Z,5.8
2018-11-04T05:10:47.293Z,5.8
2018-11-04T05:11:49.313Z,5.8
2018-11-04T05:12:51.622Z,5.8
2018-11-04T05:13:53.632Z,5.8
2018-11-04T05:14:55.960Z,5.8
2018-11-04T05:15:58.363Z,5.8
2018-11-04T05:17:00.671Z,5.8
2018-11-04T05:18:03.086Z,5.8
2018-11-04T05:19:05.094Z,5.8
2018-11-04T05:20:07.504Z,5.8
2018-11-04T05:21:09.510Z,5.8
2018-11-04T05:22:11.536Z,5.8
2018-11-04T05:23:13.558Z,5.8
2018-11-04T05:24:15.954Z,5.8
2018-11-04T05:25:17.981Z,5.8
2018-11-04T05:26:19.986Z,5.8
2018-11-04T05:27:22.000Z,5.8
2018-11-04T05:28:24.026Z,5.8
2018-11-04T05:29:26.042Z,5.8
2018-11-04T05:30:28.047Z,5.8
2018-11-04T05:31:30.451Z,5.8
2018-11-04T05:32:32.757Z,5.8
2018-11-04T05:33:34.771Z,5.8
2018-11-04T05:34:36.797Z,5.8
2018-11-04T05:35:38.811Z,5.8
2018-11-04T05:36:40.825Z,5.8
2018-11-04T05:37:42.850Z,5.8
2018-11-04T05:38:44.860Z,5.8
2018-11-04T05:39:46.879Z,5.8
2018-11-04T05:40:49.281Z,5.8
2018-11-04T05:41:51.290Z,5.8
2018-11-04T05:42:53.312Z,5.8
2018-11-04T05:43:55.333Z,5.8
2018-11-04T05:44:57.354Z,5.8
2018-11-04T05:45:59.747Z,5.8
2018-11-04T05:47:02.060Z,5.8
2018-11-04T05:48:04.076Z,5.9
2018-11-04T05:49:06.477Z,5.9
2018-11-04T05:50:08.491Z,5.9
2018-11-04T05:51:10.832Z,5.9
2018-11-04T05:52:12.851Z,5.9
2018-11-04T05:53:14.875Z,5.9
2018-11-04T05:54:16.880Z,5.9
2018-11-04T05:55:19.307Z,5.9
2018-11-04T05:56:21.327Z,5.9
2018-11-04T05:57:23.346Z,5.9
2018-11-04T05:58:26.048Z,5.9
2018-11-04T05:59:28.356Z,5.9
2018-11-04T06:00:30.373Z,6
2018-11-04T06:01:32.399Z,6
2018-11-04T06:02:34.415Z,6
2018-11-04T06:03:36.425Z,6
2018-11-04T06:04:38.440Z,6
2018-11-04T06:05:40.456Z,6
2018-11-04T06:06:43.251Z,6
2018-11-04T06:07:45.281Z,6
2018-11-04T06:08:47.303Z,6
2018-11-04T06:09:49.314Z,6.1
2018-11-04T06:10:51.632Z,6.1
2018-11-04T06:11:53.641Z,6.1
2018-11-04T06:12:55.662Z,6.1
2018-11-04T06:13:57.682Z,6.2
2018-11-04T06:14:59.687Z,6.2
2018-11-04T06:16:01.711Z,6.2
2018-11-04T06:17:03.728Z,6.2
2018-11-04T06:18:05.750Z,6.2
2018-11-04T06:19:07.757Z,6.2
2018-11-04T06:20:09.785Z,6.2
2018-11-04T06:21:12.188Z,6.2
2018-11-04T06:22:14.510Z,6.4
2018-11-04T06:23:16.543Z,6.3
2018-11-04T06:24:18.838Z,6.3
2018-11-04T06:25:20.851Z,6.3
2018-11-04T06:26:22.865Z,6.3
2018-11-04T06:27:25.187Z,6.3
2018-11-04T06:28:27.592Z,6.3
2018-11-04T06:29:29.611Z,6.3
2018-11-04T06:30:31.619Z,6.3
2018-11-04T06:31:33.648Z,6.3
2018-11-04T06:32:35.659Z,6.3
2018-11-04T06:33:37.676Z,6.3
2018-11-04T06:34:39.730Z,6.4
2018-11-04T06:35:42.693Z,6.3
2018-11-04T06:36:44.702Z,6.4
2018-11-04T06:37:46.718Z,6.4
2018-11-04T06:38:48.735Z,6.4
2018-11-04T06:39:50.760Z,6.4
2018-11-04T06:40:52.795Z,6.4
2018-11-04T06:41:54.804Z,6.4
2018-11-04T06:42:57.400Z,6.4
2018-11-04T06:43:59.428Z,6.5
2018-11-04T06:45:01.440Z,6.4
2018-11-04T06:46:03.457Z,6.5
2018-11-04T06:47:05.612Z,6.5
2018-11-04T06:48:07.484Z,6.5
2018-11-04T06:49:09.511Z,6.5
2018-11-04T06:50:11.814Z,6.5
2018-11-04T06:51:13.839Z,6.6
2018-11-04T06:52:16.228Z,6.6
2018-11-04T06:53:18.254Z,6.6
2018-11-04T06:54:20.271Z,6.6
2018-11-04T06:55:22.692Z,6.6
2018-11-04T06:56:24.720Z,6.6
2018-11-04T06:57:26.727Z,6.6
2018-11-04T06:58:29.032Z,6.6
2018-11-04T06:59:31.043Z,6.6
2018-11-04T07:00:33.076Z,6.6
2018-11-04T07:01:35.080Z,6.6
2018-11-04T07:02:37.101Z,6.7
2018-11-04T07:03:39.127Z,6.8
2018-11-04T07:04:41.137Z,6.8
2018-11-04T07:05:43.548Z,6.8
2018-11-04T07:06:45.568Z,6.8
2018-11-04T07:07:47.860Z,6.8
2018-11-04T07:08:50.296Z,6.8
2018-11-04T07:09:52.322Z,6.8
2018-11-04T07:10:54.678Z,6.8
2018-11-04T07:11:57.132Z,6.9
2018-11-04T07:12:59.154Z,6.9
2018-11-04T07:14:01.730Z,6.9
2018-11-04T07:15:04.042Z,6.8
2018-11-04T07:16:06.069Z,6.8
2018-11-04T07:17:08.079Z,6.9
2018-11-04T07:18:10.105Z,6.8
2018-11-04T07:19:12.120Z,6.8
2018-11-04T07:20:14.151Z,6.8
2018-11-04T07:21:16.475Z,6.8
2018-11-04T07:22:18.487Z,6.8
2018-11-04T07:23:21.071Z,6.8
2018-11-04T07:24:23.087Z,6.8
2018-11-04T07:25:25.141Z,6.8
2018-11-04T07:26:27.128Z,6.8
2018-11-04T07:27:29.150Z,6.8
2018-11-04T07:28:31.170Z,6.8
2018-11-04T07:29:33.180Z,6.8
2018-11-04T07:30:35.205Z,6.8
2018-11-04T07:31:37.517Z,6.9
2018-11-04T07:32:40.228Z,6.9
2018-11-04T07:33:42.565Z,6.9
2018-11-04T07:34:44.604Z,6.9
2018-11-04T07:35:46.618Z,6.9
2018-11-04T07:36:48.632Z,6.9
2018-11-04T07:37:50.662Z,6.9
2018-11-04T07:38:52.950Z,6.9
2018-11-04T07:39:54.970Z,6.9
2018-11-04T07:40:56.994Z,6.9
2018-11-04T07:41:59.014Z,6.9
2018-11-04T07:43:01.025Z,6.9
2018-11-04T07:44:03.450Z,7
2018-11-04T07:45:05.455Z,7
2018-11-04T07:46:07.472Z,7
2018-11-04T07:47:09.488Z,7
2018-11-04T07:48:11.499Z,7
2018-11-04T07:49:13.520Z,7
2018-11-04T07:50:15.535Z,7.1
2018-11-04T07:51:17.909Z,7.1
2018-11-04T07:52:20.268Z,7.1
2018-11-04T07:53:22.288Z,7.1
2018-11-04T07:54:24.319Z,7.1
2018-11-04T07:55:26.618Z,7.1
2018-11-04T07:56:28.637Z,7.1
2018-11-04T07:57:30.685Z,7.2
2018-11-04T07:58:32.679Z,7.2
2018-11-04T07:59:34.690Z,7.2
2018-11-04T08:00:36.706Z,7.2
2018-11-04T08:01:38.727Z,7.2
2018-11-04T08:02:40.736Z,7.2
2018-11-04T08:03:43.056Z,7.2
2018-11-04T08:04:45.076Z,7.2
2018-11-04T08:05:47.103Z,7.2
2018-11-04T08:06:49.108Z,7.3
2018-11-04T08:07:51.521Z,7.3
2018-11-04T08:08:53.539Z,7.4
2018-11-04T08:09:55.550Z,7.4
2018-11-04T08:10:57.583Z,7.4
2018-11-04T08:11:59.592Z,7.4
2018-11-04T08:13:01.896Z,7.4
2018-11-04T08:14:03.919Z,7.4
2018-11-04T08:15:06.225Z,7.4
2018-11-04T08:16:08.233Z,7.4
2018-11-04T08:17:10.253Z,7.5
2018-11-04T08:18:12.657Z,7.4
2018-11-04T08:19:14.678Z,7.4
2018-11-04T08:20:16.711Z,7.4
2018-11-04T08:21:18.863Z,7.4
2018-11-04T08:22:20.755Z,7.5
2018-11-04T08:23:23.151Z,7.5
2018-11-04T08:24:25.179Z,7.5
2018-11-04T08:25:27.486Z,7.5
2018-11-04T08:26:29.511Z,7.5
2018-11-04T08:27:32.431Z,7.5
2018-11-04T08:28:34.398Z,7.5
2018-11-04T08:29:36.420Z,7.6
2018-11-04T08:30:38.431Z,7.6
2018-11-04T08:31:40.747Z,7.6
2018-11-04T08:32:42.754Z,7.6
2018-11-04T08:33:45.059Z,7.6
2018-11-04T08:34:47.078Z,7.7
2018-11-04T08:35:49.087Z,7.7
2018-11-04T08:36:51.118Z,7.7
2018-11-04T08:37:53.137Z,7.7
2018-11-04T08:38:55.160Z,7.7
2018-11-04T08:39:57.299Z,7.7
2018-11-04T08:40:59.968Z,7.8
2018-11-04T08:42:02.371Z,7.8
2018-11-04T08:43:04.384Z,7.8
2018-11-04T08:44:06.414Z,7.8
2018-11-04T08:45:08.704Z,7.8
2018-11-04T08:46:10.722Z,7.8
2018-11-04T08:47:12.749Z,7.8
2018-11-04T08:48:14.774Z,7.8
2018-11-04T08:49:17.069Z,7.8
2018-11-04T08:50:19.083Z,7.8
2018-11-04T08:51:21.104Z,7.9
2018-11-04T08:52:23.145Z,7.9
2018-11-04T08:53:25.150Z,7.9
2018-11-04T08:54:27.173Z,7.9
2018-11-04T08:55:29.182Z,7.9
2018-11-04T08:56:31.208Z,7.9
2018-11-04T08:57:33.507Z,7.9
2018-11-04T08:58:35.809Z,7.9
2018-11-04T08:59:37.824Z,8
2018-11-04T09:00:39.858Z,8
2018-11-04T09:01:41.871Z,8
2018-11-04T09:02:43.889Z,8
2018-11-04T09:03:45.905Z,8
2018-11-04T09:04:47.934Z,8
2018-11-04T09:05:49.944Z,8.1
2018-11-04T09:06:51.961Z,8
2018-11-04T09:07:53.980Z,8
2018-11-04T09:08:55.986Z,8.1
2018-11-04T09:09:58.020Z,8.1
2018-11-04T09:11:00.319Z,8.1
2018-11-04T09:12:02.735Z,8.1
2018-11-04T09:13:04.744Z,8.1
2018-11-04T09:14:07.525Z,8.1
2018-11-04T09:15:09.545Z,8.1
2018-11-04T09:16:11.558Z,8.2
2018-11-04T09:17:13.588Z,8.1
2018-11-04T09:18:15.597Z,8.1
2018-11-04T09:19:17.616Z,8.2
2018-11-04T09:20:19.923Z,8.2
2018-11-04T09:21:21.947Z,8.2
2018-11-04T09:22:24.527Z,8.3
2018-11-04T09:23:27.409Z,8.3
2018-11-04T09:24:29.413Z,8.3
2018-11-04T09:25:31.432Z,8.4
2018-11-04T09:26:33.465Z,8.4
2018-11-04T09:27:35.482Z,8.5
2018-11-04T09:28:37.500Z,8.4
2018-11-04T09:29:39.533Z,8.4
2018-11-04T09:30:41.551Z,8.4
2018-11-04T09:31:44.165Z,8.5
2018-11-04T09:32:46.591Z,8.5
2018-11-04T09:33:49.264Z,8.4
2018-11-04T09:34:51.744Z,8.4
2018-11-04T09:35:55.324Z,8.5
2018-11-04T09:36:58.235Z,8.4
2018-11-04T09:38:00.242Z,8.5
2018-11-04T09:39:02.271Z,8.5
2018-11-04T09:40:04.292Z,8.5
2018-11-04T09:41:06.312Z,8.5
2018-11-04T09:42:08.344Z,8.5
2018-11-04T09:43:10.642Z,8.6
2018-11-04T09:44:12.667Z,8.6
2018-11-04T09:45:14.981Z,8.6
2018-11-04T09:46:17.009Z,8.6
2018-11-04T09:47:19.021Z,8.6
2018-11-04T09:48:21.040Z,8.6
2018-11-04T09:49:23.064Z,8.6
2018-11-04T09:50:25.073Z,8.7
2018-11-04T09:51:27.106Z,8.6
2018-11-04T09:52:29.128Z,8.7
2018-11-04T09:53:31.142Z,8.7
2018-11-04T09:54:33.160Z,8.7
2018-11-04T09:55:35.190Z,8.7
2018-11-04T09:56:37.934Z,8.7
2018-11-04T09:57:40.287Z,8.7
2018-11-04T09:58:42.701Z,8.7
2018-11-04T09:59:44.708Z,8.8
2018-11-04T10:00:47.028Z,8.8
2018-11-04T10:01:49.056Z,8.8
2018-11-04T10:02:51.344Z,8.8
2018-11-04T10:03:53.368Z,8.8
2018-11-04T10:04:55.395Z,8.8
2018-11-04T10:05:57.411Z,8.8
2018-11-04T10:06:59.515Z,8.8
2018-11-04T10:08:01.461Z,8.9
2018-11-04T10:09:03.485Z,8.9
2018-11-04T10:10:05.502Z,8.9
2018-11-04T10:11:07.542Z,9
2018-11-04T10:12:09.551Z,9
2018-11-04T10:13:11.605Z,9
2018-11-04T10:14:13.591Z,9.1
2018-11-04T10:15:15.609Z,9
2018-11-04T10:16:17.791Z,9.1
2018-11-04T10:17:20.176Z,9
2018-11-04T10:18:22.197Z,9
2018-11-04T10:19:24.606Z,9.1
2018-11-04T10:20:26.641Z,9.1
2018-11-04T10:21:28.267Z,9.1
2018-11-04T10:22:30.297Z,9.1
2018-11-04T10:23:32.308Z,9.1
2018-11-04T10:24:34.642Z,9.1
2018-11-04T10:25:36.661Z,9.1
2018-11-04T10:26:38.963Z,9.1
2018-11-04T10:27:41.301Z,9.1
2018-11-04T10:28:43.334Z,9.1
2018-11-04T10:29:45.356Z,9.1
2018-11-04T10:30:47.377Z,9.1
2018-11-04T10:31:49.401Z,9.1
2018-11-04T10:32:52.088Z,9.3
2018-11-04T10:33:54.112Z,9.3
2018-11-04T10:34:56.138Z,9.2
2018-11-04T10:35:58.452Z,9.2
2018-11-04T10:37:01.324Z,9.3
2018-11-04T10:38:04.012Z,9.3
2018-11-04T10:39:06.037Z,9.3
2018-11-04T10:40:08.489Z,9.3
2018-11-04T10:41:10.508Z,9.3
2018-11-04T10:42:12.591Z,9.4
2018-11-04T10:43:14.546Z,9.4
2018-11-04T10:44:16.584Z,9.4
2018-11-04T10:45:18.594Z,9.4
2018-11-04T10:46:20.620Z,9.5
2018-11-04T10:47:22.676Z,9.5
2018-11-04T10:48:25.745Z,9.4
2018-11-04T10:49:28.424Z,9.5
2018-11-04T10:50:30.356Z,9.4
2018-11-04T10:51:32.380Z,9.4
2018-11-04T10:52:34.391Z,9.4
2018-11-04T10:53:36.419Z,9.4
2018-11-04T10:54:38.445Z,9.5
2018-11-04T10:55:40.514Z,9.6
2018-11-04T10:56:42.781Z,9.6
2018-11-04T10:57:44.815Z,9.6
2018-11-04T10:58:47.301Z,9.5
2018-11-04T10:59:49.319Z,9.6
2018-11-04T11:00:53.089Z,9.6
2018-11-04T11:01:55.125Z,9.6
2018-11-04T11:02:59.425Z,9.6
2018-11-04T11:04:02.043Z,9.6
2018-11-04T11:05:04.451Z,9.6
2018-11-04T11:06:06.848Z,9.6
2018-11-04T11:07:09.171Z,9.6
2018-11-04T11:08:11.201Z,9.6
2018-11-04T11:09:13.209Z,9.6
2018-11-04T11:10:15.236Z,9.6
2018-11-04T11:11:17.260Z,9.6
2018-11-04T11:12:19.563Z,9.7
2018-11-04T11:13:21.597Z,9.7
2018-11-04T11:14:23.611Z,9.7
2018-11-04T11:15:26.027Z,9.7
2018-11-04T11:16:28.335Z,9.7
2018-11-04T11:17:30.368Z,9.6
2018-11-04T11:18:32.385Z,9.6
2018-11-04T11:19:34.410Z,9.6
2018-11-04T11:20:36.432Z,9.6
2018-11-04T11:21:38.440Z,9.6
2018-11-04T11:22:40.666Z,9.6
2018-11-04T11:23:42.498Z,9.6
2018-11-04T11:24:44.907Z,9.6
2018-11-04T11:25:47.304Z,9.5
2018-11-04T11:26:49.341Z,9.6
2018-11-04T11:27:51.751Z,9.6
2018-11-04T11:28:53.770Z,9.6
2018-11-04T11:29:55.863Z,9.6
2018-11-04T11:30:57.822Z,9.6
2018-11-04T11:31:59.848Z,9.6
2018-11-04T11:33:02.532Z,9.5
2018-11-04T11:34:04.549Z,9.6
2018-11-04T11:35:06.588Z,9.6
2018-11-04T11:36:08.611Z,9.6
2018-11-04T11:37:11.139Z,9.6
2018-11-04T11:38:13.113Z,9.6
2018-11-04T11:39:15.124Z,9.6
2018-11-04T11:40:17.151Z,9.6
2018-11-04T11:41:19.180Z,9.6
2018-11-04T11:42:21.190Z,9.6
2018-11-04T11:43:23.220Z,9.7
2018-11-04T11:44:25.242Z,9.7
2018-11-04T11:45:27.262Z,9.7
2018-11-04T11:46:29.297Z,9.7
2018-11-04T11:47:31.316Z,9.8
2018-11-04T11:48:33.339Z,9.7
2018-11-04T11:49:35.357Z,9.7
2018-11-04T11:50:38.069Z,9.7
2018-11-04T11:51:40.085Z,9.7
2018-11-04T11:52:42.245Z,9.7
2018-11-04T11:53:44.136Z,9.7
2018-11-04T11:54:46.155Z,9.7
2018-11-04T11:55:48.190Z,9.7
2018-11-04T11:56:50.212Z,9.7
2018-11-04T11:57:52.241Z,9.7
2018-11-04T11:58:54.534Z,9.7
2018-11-04T11:59:57.132Z,9.7
2018-11-04T12:00:59.155Z,9.7
2018-11-04T12:02:01.494Z,9.7
2018-11-04T12:03:03.518Z,9.7
2018-11-04T12:04:05.531Z,9.7
2018-11-04T12:05:07.936Z,9.8
2018-11-04T12:06:09.966Z,9.8
2018-11-04T12:07:12.412Z,9.9
2018-11-04T12:08:14.425Z,9.9
2018-11-04T12:09:16.735Z,9.9
2018-11-04T12:10:19.047Z,9.9
2018-11-04T12:11:21.073Z,9.9
2018-11-04T12:12:23.104Z,9.9
2018-11-04T12:13:25.126Z,9.9
2018-11-04T12:14:27.146Z,9.9
2018-11-04T12:15:29.181Z,9.9
2018-11-04T12:16:31.198Z,10
2018-11-04T12:17:33.279Z,10
2018-11-04T12:18:35.248Z,10
2018-11-04T12:19:37.646Z,10.1
2018-11-04T12:20:39.677Z,10.1
2018-11-04T12:21:41.703Z,10.1
2018-11-04T12:22:44.116Z,10.1
2018-11-04T12:23:47.121Z,10.1
2018-11-04T12:24:49.334Z,10.1
2018-11-04T12:25:51.356Z,10.1
2018-11-04T12:26:53.380Z,10.2
2018-11-04T12:27:55.414Z,10.2
2018-11-04T12:28:58.119Z,10.2
2018-11-04T12:30:00.155Z,10.1
2018-11-04T12:31:02.193Z,10.1
2018-11-04T12:32:04.519Z,10.2
2018-11-04T12:33:06.541Z,10.2
2018-11-04T12:34:08.565Z,10.2
2018-11-04T12:35:10.669Z,10.2
2018-11-04T12:36:12.970Z,10.2
2018-11-04T12:37:15.012Z,10.3
2018-11-04T12:38:17.318Z,10.3
2018-11-04T12:39:19.341Z,10.3
2018-11-04T12:40:21.364Z,10.3
2018-11-04T12:41:23.449Z,10.3
2018-11-04T12:42:25.425Z,10.3
2018-11-04T12:43:27.451Z,10.3
2018-11-04T12:44:29.479Z,10.3
2018-11-04T12:45:31.818Z,10.4
2018-11-04T12:46:33.821Z,10.4
2018-11-04T12:47:35.845Z,10.5
2018-11-04T12:48:38.260Z,10.4
2018-11-04T12:49:40.279Z,10.4
2018-11-04T12:50:42.600Z,10.4
2018-11-04T12:51:44.913Z,10.4
2018-11-04T12:52:46.924Z,10.5
2018-11-04T12:53:48.957Z,10.4
2018-11-04T12:54:50.982Z,10.5
2018-11-04T12:55:53.396Z,10.4
2018-11-04T12:56:55.413Z,10.4
2018-11-04T12:57:57.842Z,10.4
2018-11-04T12:58:59.869Z,10.4
2018-11-04T13:00:01.897Z,10.4
2018-11-04T13:01:04.211Z,10.4
2018-11-04T13:02:06.841Z,10.4
2018-11-04T13:03:08.805Z,10.3
2018-11-04T13:04:10.837Z,10.3
2018-11-04T13:05:12.873Z,10.3
2018-11-04T13:06:14.892Z,10.3
2018-11-04T13:07:16.912Z,10.3
2018-11-04T13:08:18.944Z,10.3
2018-11-04T13:09:20.959Z,10.2
2018-11-04T13:10:22.997Z,10.2
2018-11-04T13:11:25.078Z,10.2
2018-11-04T13:12:27.398Z,10.2
2018-11-04T13:13:29.426Z,10.2
2018-11-04T13:14:31.462Z,10.2
2018-11-04T13:15:33.485Z,10.1
2018-11-04T13:16:35.507Z,10.2
2018-11-04T13:17:37.531Z,10.1
2018-11-04T13:18:39.546Z,10.1
2018-11-04T13:19:41.563Z,10.1
2018-11-04T13:20:43.595Z,10.1
2018-11-04T13:21:45.606Z,10.2
2018-11-04T13:22:47.635Z,10.2
2018-11-04T13:23:49.660Z,10.2
2018-11-04T13:24:51.692Z,10.2
2018-11-04T13:25:53.709Z,10.1
2018-11-04T13:26:55.808Z,10.1
2018-11-04T13:27:57.769Z,10.1
2018-11-04T13:29:00.187Z,10.1
2018-11-04T13:30:02.512Z,10.2
2018-11-04T13:31:04.538Z,10.2
2018-11-04T13:32:06.848Z,10.2
2018-11-04T13:33:08.875Z,10.2
2018-11-04T13:34:10.911Z,10.1
2018-11-04T13:35:13.319Z,10.1
2018-11-04T13:36:15.342Z,10.1
2018-11-04T13:37:17.360Z,10.1
2018-11-04T13:38:19.393Z,10.1
2018-11-04T13:39:21.409Z,10.1
2018-11-04T13:40:23.434Z,10.1
2018-11-04T13:41:25.462Z,10.1
2018-11-04T13:42:27.478Z,10.2
2018-11-04T13:43:29.519Z,10.1
2018-11-04T13:44:31.555Z,10.2
2018-11-04T13:45:33.565Z,10.2
2018-11-04T13:46:35.977Z,10.2
2018-11-04T13:47:38.014Z,10.2
2018-11-04T13:48:40.333Z,10.1
2018-11-04T13:49:42.354Z,10.1
2018-11-04T13:50:44.380Z,10.1
2018-11-04T13:51:46.390Z,10.1
2018-11-04T13:52:48.426Z,10.1
2018-11-04T13:53:50.457Z,10.2
2018-11-04T13:54:52.473Z,10.2
2018-11-04T13:55:54.504Z,10.2
2018-11-04T13:56:56.532Z,10.1
2018-11-04T13:57:58.582Z,10.1
2018-11-04T13:59:00.620Z,10.1
2018-11-04T14:00:02.931Z,10.1
2018-11-04T14:01:05.345Z,10
2018-11-04T14:02:07.367Z,10
2018-11-04T14:03:09.986Z,10
2018-11-04T14:04:12.311Z,10
2018-11-04T14:05:14.341Z,10
2018-11-04T14:06:17.034Z,10
2018-11-04T14:07:19.072Z,10
2018-11-04T14:08:21.378Z,10
2018-11-04T14:09:23.414Z,10
2018-11-04T14:10:25.816Z,10
2018-11-04T14:11:27.852Z,10
2018-11-04T14:12:29.867Z,10
2018-11-04T14:13:31.944Z,10
2018-11-04T14:14:33.931Z,10